createdAt,value
2018-07-07T00:00:25.677Z,4.80
2018-07-07T00:02:54.124Z,4.43
2018-07-07T00:05:22.589Z,4.30
2018-07-07T00:07:50.685Z,4.20
2018-07-07T00:10:19.109Z,4.63
2018-07-07T00:12:47.480Z,4.53
2018-07-07T00:15:19.593Z,4.30
2018-07-07T00:17:49.187Z,4.10
2018-07-07T00:20:18.157Z,4.30
2018-07-07T00:22:47.165Z,3.93
2018-07-07T00:25:21.674Z,4.00
2018-07-07T00:27:50.710Z,4.30
2018-07-07T00:30:19.443Z,4.30
2018-07-07T00:32:47.916Z,3.97
2018-07-07T00:35:16.328Z,4.10
2018-07-07T00:37:44.813Z,4.07
2018-07-07T00:40:13.241Z,4.13
2018-07-07T00:42:41.746Z,3.90
2018-07-07T00:45:10.809Z,4.13
2018-07-07T00:47:39.277Z,3.97
2018-07-07T00:50:08.128Z,3.80
2018-07-07T00:52:36.530Z,3.57
2018-07-07T00:55:05.056Z,3.40
2018-07-07T00:57:33.446Z,3.30
2018-07-07T01:00:01.886Z,3.50
2018-07-07T01:02:30.325Z,3.10
2018-07-07T01:04:58.773Z,3.23
2018-07-07T01:07:27.197Z,2.87
2018-07-07T01:09:55.612Z,2.90
2018-07-07T01:12:24.006Z,2.67
2018-07-07T01:14:52.476Z,2.97
2018-07-07T01:17:20.884Z,3.20
2018-07-07T01:19:49.305Z,3.10
2018-07-07T01:22:17.694Z,3.00
2018-07-07T01:24:46.089Z,3.33
2018-07-07T01:27:14.461Z,3.60
2018-07-07T01:29:42.937Z,3.43
2018-07-07T01:32:11.329Z,3.10
2018-07-07T01:34:40.206Z,3.27
2018-07-07T01:37:08.789Z,3.70
2018-07-07T01:39:37.321Z,3.70
2018-07-07T01:42:05.919Z,3.70
2018-07-07T01:44:34.358Z,3.20
2018-07-07T01:47:02.834Z,3.80
2018-07-07T01:49:31.284Z,3.97
2018-07-07T01:51:59.685Z,3.40
2018-07-07T01:54:28.113Z,3.53
2018-07-07T01:56:56.564Z,4.30
2018-07-07T01:59:24.937Z,3.60
2018-07-07T02:01:53.384Z,3.80
2018-07-07T02:04:21.793Z,3.50
2018-07-07T02:06:50.191Z,3.40
2018-07-07T02:09:18.601Z,3.90
2018-07-07T02:11:47.058Z,3.10
2018-07-07T02:14:15.494Z,3.50
2018-07-07T02:16:43.981Z,3.23
2018-07-07T02:19:12.358Z,3.37
2018-07-07T02:21:40.776Z,3.33
2018-07-07T02:24:09.177Z,3.50
2018-07-07T02:26:37.536Z,3.20
2018-07-07T02:29:05.957Z,2.87
2018-07-07T02:31:34.333Z,2.70
2018-07-07T02:34:02.787Z,3.10
2018-07-07T02:36:31.200Z,3.00
2018-07-07T02:38:59.587Z,2.80
2018-07-07T02:41:28.035Z,3.23
2018-07-07T02:43:56.438Z,3.00
2018-07-07T02:46:24.585Z,3.00
2018-07-07T02:48:52.914Z,3.10
2018-07-07T02:51:21.410Z,3.00
2018-07-07T02:53:49.813Z,3.00
2018-07-07T02:56:18.221Z,3.00
2018-07-07T02:58:47.225Z,2.80
2018-07-07T03:01:15.681Z,2.90
2018-07-07T03:03:44.061Z,3.00
2018-07-07T03:06:12.475Z,2.70
2018-07-07T03:08:40.622Z,3.17
2018-07-07T03:11:08.993Z,3.20
2018-07-07T03:13:37.501Z,2.93
2018-07-07T03:16:05.961Z,3.43
2018-07-07T03:18:34.326Z,3.00
2018-07-07T03:21:02.802Z,2.97
2018-07-07T03:23:31.193Z,3.50
2018-07-07T03:25:59.598Z,3.20
2018-07-07T03:28:28.774Z,2.70
2018-07-07T03:30:57.143Z,3.13
2018-07-07T03:33:25.533Z,2.70
2018-07-07T03:35:53.927Z,3.13
2018-07-07T03:38:22.297Z,3.00
2018-07-07T03:40:50.769Z,2.90
2018-07-07T03:43:19.138Z,2.70
2018-07-07T03:45:47.546Z,2.70
2018-07-07T03:48:15.954Z,2.80
2018-07-07T03:50:44.788Z,3.10
2018-07-07T03:53:13.222Z,2.83
2018-07-07T03:55:41.662Z,2.60
2018-07-07T03:58:10.067Z,2.60
2018-07-07T04:00:38.466Z,2.70
2018-07-07T04:03:07.024Z,2.80
2018-07-07T04:05:35.501Z,2.73
2018-07-07T04:08:03.877Z,2.90
2018-07-07T04:10:33.077Z,3.00
2018-07-07T04:13:01.472Z,2.63
2018-07-07T04:15:30.081Z,2.50
2018-07-07T04:17:58.469Z,2.70
2018-07-07T04:20:27.503Z,2.93
2018-07-07T04:22:55.877Z,2.70
2018-07-07T04:25:24.317Z,3.20
2018-07-07T04:27:52.736Z,2.87
2018-07-07T04:30:21.105Z,2.90
2018-07-07T04:32:49.573Z,3.10
2018-07-07T04:35:18.082Z,3.10
2018-07-07T04:37:46.493Z,3.20
2018-07-07T04:40:14.855Z,3.60
2018-07-07T04:42:43.293Z,2.67
2018-07-07T04:45:11.395Z,3.13
2018-07-07T04:47:39.813Z,2.83
2018-07-07T04:50:08.205Z,2.67
2018-07-07T04:52:36.609Z,3.17
2018-07-07T04:55:05.041Z,2.80
2018-07-07T04:57:33.436Z,3.20
2018-07-07T05:00:01.894Z,3.30
2018-07-07T05:02:30.291Z,3.00
2018-07-07T05:04:58.705Z,3.07
2018-07-07T05:07:27.070Z,2.90
2018-07-07T05:09:55.478Z,2.70
2018-07-07T05:12:24.039Z,2.97
2018-07-07T05:14:52.411Z,2.70
2018-07-07T05:17:20.934Z,2.90
2018-07-07T05:19:49.265Z,3.03
2018-07-07T05:22:17.678Z,2.90
2018-07-07T05:24:46.256Z,3.10
2018-07-07T05:27:14.629Z,2.73
2018-07-07T05:29:43.020Z,3.17
2018-07-07T05:32:11.486Z,3.40
2018-07-07T05:34:39.888Z,3.03
2018-07-07T05:37:08.330Z,3.20
2018-07-07T05:39:37.495Z,3.10
2018-07-07T05:42:05.957Z,3.30
2018-07-07T05:44:34.357Z,3.10
2018-07-07T05:47:02.717Z,3.43
2018-07-07T05:49:30.869Z,3.40
2018-07-07T05:52:01.297Z,3.40
2018-07-07T05:54:29.657Z,3.53
2018-07-07T05:56:58.053Z,3.27
2018-07-07T05:59:26.473Z,3.30
2018-07-07T06:01:54.569Z,3.90
2018-07-07T06:04:23.016Z,3.83
2018-07-07T06:06:51.457Z,3.60
2018-07-07T06:09:19.955Z,3.47
2018-07-07T06:11:48.334Z,3.63
2018-07-07T06:14:16.862Z,3.33
2018-07-07T06:16:45.228Z,2.83
2018-07-07T06:19:13.730Z,3.27
2018-07-07T06:21:42.168Z,2.90
2018-07-07T06:24:11.862Z,2.80
2018-07-07T06:26:40.419Z,3.37
2018-07-07T06:29:08.834Z,3.10
2018-07-07T06:31:37.254Z,3.00
2018-07-07T06:34:06.166Z,3.00
2018-07-07T06:36:34.591Z,3.40
2018-07-07T06:39:03.077Z,3.20
2018-07-07T06:41:31.446Z,2.70
2018-07-07T06:43:59.866Z,2.80
2018-07-07T06:46:28.350Z,3.10
2018-07-07T06:48:56.806Z,3.10
2018-07-07T06:51:25.179Z,3.00
2018-07-07T06:53:53.682Z,2.80
2018-07-07T06:56:21.969Z,2.90
2018-07-07T06:58:50.358Z,2.20
2018-07-07T07:01:18.771Z,2.47
2018-07-07T07:03:47.202Z,2.53
2018-07-07T07:06:15.746Z,2.13
2018-07-07T07:08:44.818Z,2.45
2018-07-07T07:11:13.238Z,2.30
2018-07-07T07:13:41.609Z,2.40
2018-07-07T07:16:10.038Z,2.10
2018-07-07T07:18:38.476Z,2.20
2018-07-07T07:21:06.988Z,2.03
2018-07-07T07:23:35.480Z,2.03
2018-07-07T07:26:03.897Z,2.23
2018-07-07T07:28:32.345Z,2.17
2018-07-07T07:31:00.742Z,1.90
2018-07-07T07:33:29.153Z,2.50
2018-07-07T07:35:57.610Z,2.10
2018-07-07T07:38:25.832Z,2.10
2018-07-07T07:40:54.245Z,2.30
2018-07-07T07:43:22.681Z,2.17
2018-07-07T07:45:51.113Z,1.90
2018-07-07T07:48:19.673Z,1.90
2018-07-07T07:50:48.114Z,1.67
2018-07-07T07:53:16.540Z,2.03
2018-07-07T07:55:44.933Z,2.50
2018-07-07T07:58:13.774Z,1.97
2018-07-07T08:00:42.234Z,1.97
2018-07-07T08:03:10.662Z,1.70
2018-07-07T08:05:39.049Z,1.70
2018-07-07T08:08:07.569Z,1.67
2018-07-07T08:10:36.085Z,1.80
2018-07-07T08:13:04.479Z,1.67
2018-07-07T08:15:32.929Z,1.70
2018-07-07T08:18:01.464Z,1.63
2018-07-07T08:20:29.884Z,1.67
2018-07-07T08:22:58.999Z,1.80
2018-07-07T08:25:27.310Z,1.90
2018-07-07T08:27:55.706Z,1.63
2018-07-07T08:30:24.439Z,1.90
2018-07-07T08:32:52.946Z,1.80
2018-07-07T08:35:21.353Z,1.90
2018-07-07T08:37:49.771Z,1.80
2018-07-07T08:40:18.165Z,1.77
2018-07-07T08:42:47.189Z,1.83
2018-07-07T08:45:15.862Z,1.50
2018-07-07T08:47:45.270Z,1.80
2018-07-07T08:50:14.019Z,1.60
2018-07-07T08:52:42.465Z,1.93
2018-07-07T08:55:10.872Z,1.60
2018-07-07T08:57:39.286Z,1.90
2018-07-07T09:00:07.742Z,2.00
2018-07-07T09:02:36.117Z,1.90
2018-07-07T09:05:04.518Z,2.00
2018-07-07T09:07:33.025Z,1.90
2018-07-07T09:10:01.489Z,2.00
2018-07-07T09:12:29.830Z,1.70
2018-07-07T09:14:58.327Z,2.00
2018-07-07T09:17:26.715Z,2.20
2018-07-07T09:19:54.837Z,2.20
2018-07-07T09:22:23.189Z,1.80
2018-07-07T09:24:51.618Z,2.73
2018-07-07T09:27:20.032Z,2.13
2018-07-07T09:29:48.435Z,2.53
2018-07-07T09:32:16.803Z,2.57
2018-07-07T09:34:45.291Z,2.40
2018-07-07T09:37:13.689Z,2.20
2018-07-07T09:39:42.138Z,2.30
2018-07-07T09:42:10.253Z,2.10
2018-07-07T09:44:38.728Z,2.17
2018-07-07T09:47:07.203Z,2.20
2018-07-07T09:49:35.618Z,2.33
2018-07-07T09:52:04.083Z,2.37
2018-07-07T09:54:32.468Z,2.37
2018-07-07T09:57:00.950Z,2.50
2018-07-07T09:59:29.429Z,2.30
2018-07-07T10:01:57.893Z,2.10
2018-07-07T10:04:26.245Z,2.73
2018-07-07T10:06:54.654Z,2.30
2018-07-07T10:09:23.039Z,2.13
2018-07-07T10:11:51.859Z,1.97
2018-07-07T10:14:20.274Z,2.30
2018-07-07T10:16:48.820Z,2.00
2018-07-07T10:19:17.239Z,1.90
2018-07-07T10:21:45.630Z,2.10
2018-07-07T10:24:14.041Z,1.93
2018-07-07T10:26:42.465Z,2.20
2018-07-07T10:29:10.857Z,2.13
2018-07-07T10:31:39.348Z,2.50
2018-07-07T10:34:07.708Z,2.77
2018-07-07T10:36:36.133Z,2.47
2018-07-07T10:39:05.033Z,2.07
2018-07-07T10:41:33.457Z,2.50
2018-07-07T10:44:02.374Z,2.20
2018-07-07T10:46:30.784Z,1.90
2018-07-07T10:48:59.238Z,1.90
2018-07-07T10:51:27.615Z,1.80
2018-07-07T10:53:56.045Z,1.83
2018-07-07T10:56:24.438Z,2.00
2018-07-07T10:58:52.993Z,1.90
2018-07-07T11:01:21.414Z,2.00
2018-07-07T11:03:49.809Z,1.40
2018-07-07T11:06:18.829Z,1.70
2018-07-07T11:08:47.242Z,1.73
2018-07-07T11:11:15.320Z,1.57
2018-07-07T11:13:43.695Z,1.90
2018-07-07T11:16:12.190Z,1.70
2018-07-07T11:18:40.591Z,1.83
2018-07-07T11:21:09.021Z,1.80
2018-07-07T11:23:37.410Z,1.50
2018-07-07T11:26:05.878Z,1.73
2018-07-07T11:28:34.253Z,1.83
2018-07-07T11:31:02.642Z,1.60
2018-07-07T11:33:30.756Z,1.77
2018-07-07T11:35:59.108Z,1.37
2018-07-07T11:38:27.471Z,1.60
2018-07-07T11:40:55.926Z,1.60
2018-07-07T11:43:24.325Z,1.50
2018-07-07T11:45:52.801Z,1.60
2018-07-07T11:48:21.198Z,1.63
2018-07-07T11:50:49.605Z,1.60
2018-07-07T11:53:17.984Z,1.80
2018-07-07T11:55:46.373Z,1.80
2018-07-07T11:58:14.818Z,1.67
2018-07-07T12:00:43.261Z,1.60
2018-07-07T12:03:11.625Z,1.80
2018-07-07T12:05:40.604Z,1.40
2018-07-07T12:08:13.876Z,1.67
2018-07-07T12:10:37.398Z,1.50
2018-07-07T12:13:05.790Z,1.30
2018-07-07T12:15:34.213Z,1.70
2018-07-07T12:18:02.658Z,1.50
2018-07-07T12:20:31.133Z,1.80
2018-07-07T12:22:59.502Z,1.70
2018-07-07T12:25:27.867Z,1.60
2018-07-07T12:27:56.350Z,1.73
2018-07-07T12:30:24.729Z,1.60
2018-07-07T12:32:53.111Z,1.60
2018-07-07T12:35:21.606Z,1.70
2018-07-07T12:37:50.033Z,1.90
2018-07-07T12:40:18.898Z,1.57
2018-07-07T12:42:47.311Z,1.90
2018-07-07T12:45:15.769Z,1.67
2018-07-07T12:47:44.249Z,1.53
2018-07-07T12:50:12.648Z,1.60
2018-07-07T12:52:40.774Z,1.63
2018-07-07T12:55:09.201Z,1.70
2018-07-07T12:57:37.748Z,1.90
2018-07-07T13:00:06.557Z,1.93
2018-07-07T13:02:34.985Z,1.80
2018-07-07T13:05:03.454Z,1.93
2018-07-07T13:07:31.897Z,1.80
2018-07-07T13:10:00.314Z,1.80
2018-07-07T13:12:28.745Z,1.60
2018-07-07T13:14:57.330Z,1.77
2018-07-07T13:17:25.742Z,1.87
2018-07-07T13:19:54.148Z,1.70
2018-07-07T13:22:22.594Z,1.80
2018-07-07T13:24:50.961Z,1.97
2018-07-07T13:27:19.373Z,2.00
2018-07-07T13:29:47.770Z,1.97
2018-07-07T13:32:16.163Z,1.70
2018-07-07T13:34:44.554Z,1.90
2018-07-07T13:37:13.050Z,2.00
2018-07-07T13:39:42.804Z,2.10
2018-07-07T13:42:12.265Z,1.90
2018-07-07T13:44:41.120Z,2.10
2018-07-07T13:47:09.876Z,1.90
2018-07-07T13:49:38.981Z,1.77
2018-07-07T13:52:07.494Z,2.20
2018-07-07T13:54:36.100Z,2.20
2018-07-07T13:57:04.928Z,2.20
2018-07-07T13:59:33.350Z,2.13
2018-07-07T14:02:01.763Z,1.90
2018-07-07T14:04:30.166Z,2.30
2018-07-07T14:06:58.575Z,1.80
2018-07-07T14:09:27.069Z,2.30
2018-07-07T14:11:55.405Z,2.00
2018-07-07T14:14:23.862Z,1.60
2018-07-07T14:16:52.392Z,1.73
2018-07-07T14:19:20.788Z,2.10
2018-07-07T14:21:48.934Z,2.10
2018-07-07T14:24:17.330Z,1.93
2018-07-07T14:26:46.177Z,2.20
2018-07-07T14:29:14.558Z,2.50
2018-07-07T14:31:42.975Z,2.10
2018-07-07T14:34:11.393Z,1.97
2018-07-07T14:36:39.508Z,2.10
2018-07-07T14:39:08.010Z,2.50
2018-07-07T14:41:36.447Z,2.40
2018-07-07T14:44:05.449Z,2.27
2018-07-07T14:46:34.815Z,2.10
2018-07-07T14:49:02.958Z,2.60
2018-07-07T14:51:31.348Z,3.40
2018-07-07T14:53:59.753Z,2.33
2018-07-07T14:56:28.846Z,2.30
2018-07-07T14:58:57.258Z,2.20
2018-07-07T15:01:25.799Z,2.40
2018-07-07T15:03:54.235Z,2.17
2018-07-07T15:06:23.396Z,2.10
2018-07-07T15:08:51.479Z,2.30
2018-07-07T15:11:19.558Z,2.03
2018-07-07T15:13:48.460Z,1.90
2018-07-07T15:16:16.900Z,1.93
2018-07-07T15:18:45.399Z,2.33
2018-07-07T15:21:13.850Z,2.40
2018-07-07T15:23:42.873Z,2.30
2018-07-07T15:26:11.348Z,3.13
2018-07-07T15:28:39.917Z,2.70
2018-07-07T15:31:08.388Z,2.30
2018-07-07T15:33:36.801Z,2.27
2018-07-07T15:36:05.237Z,2.37
2018-07-07T15:38:34.314Z,2.00
2018-07-07T15:41:02.753Z,2.03
2018-07-07T15:43:31.191Z,1.80
2018-07-07T15:45:59.671Z,2.37
2018-07-07T15:48:28.126Z,1.83
2018-07-07T15:50:56.542Z,2.27
2018-07-07T15:53:24.993Z,2.40
2018-07-07T15:55:53.425Z,2.10
2018-07-07T15:58:21.810Z,2.60
2018-07-07T16:00:50.291Z,2.70
2018-07-07T16:03:18.708Z,2.43
2018-07-07T16:05:47.149Z,2.30
2018-07-07T16:08:15.595Z,2.90
2018-07-07T16:10:44.042Z,2.43
2018-07-07T16:13:12.470Z,2.60
2018-07-07T16:15:40.913Z,2.40
2018-07-07T16:18:09.306Z,7.20
2018-07-07T16:20:37.751Z,3.00
2018-07-07T16:23:06.189Z,2.60
2018-07-07T16:25:34.553Z,2.40
2018-07-07T16:28:02.983Z,2.80
2018-07-07T16:30:31.384Z,3.53
2018-07-07T16:32:59.785Z,3.00
2018-07-07T16:35:27.857Z,3.67
2018-07-07T16:37:56.261Z,2.77
2018-07-07T16:40:24.653Z,2.83
2018-07-07T16:42:53.188Z,2.83
2018-07-07T16:45:21.634Z,3.30
2018-07-07T16:47:50.171Z,5.00
2018-07-07T16:50:18.622Z,3.00
2018-07-07T16:52:47.083Z,2.87
2018-07-07T16:55:15.479Z,3.67
2018-07-07T16:57:43.981Z,3.53
2018-07-07T17:00:12.890Z,2.87
2018-07-07T17:02:41.093Z,3.23
2018-07-07T17:05:09.622Z,3.93
2018-07-07T17:07:38.023Z,3.57
2018-07-07T17:10:06.782Z,3.30
2018-07-07T17:12:35.226Z,3.33
2018-07-07T17:15:03.634Z,3.13
2018-07-07T17:17:33.276Z,3.37
2018-07-07T17:20:01.741Z,3.00
2018-07-07T17:22:30.211Z,3.00
2018-07-07T17:24:59.182Z,2.63
2018-07-07T17:27:27.686Z,2.63
2018-07-07T17:29:57.173Z,3.10
2018-07-07T17:32:25.729Z,2.70
2018-07-07T17:34:54.254Z,2.90
2018-07-07T17:37:22.857Z,2.73
2018-07-07T17:39:51.335Z,2.60
2018-07-07T17:42:19.822Z,2.60
2018-07-07T17:44:48.410Z,2.70
2018-07-07T17:47:16.898Z,2.90
2018-07-07T17:49:45.397Z,3.07
2018-07-07T17:52:13.833Z,2.77
2018-07-07T17:54:43.154Z,3.00
2018-07-07T17:57:11.629Z,2.70
2018-07-07T17:59:40.046Z,2.97
2018-07-07T18:02:08.627Z,2.80
2018-07-07T18:04:37.119Z,3.20
2018-07-07T18:07:05.589Z,2.80
2018-07-07T18:09:34.057Z,2.83
2018-07-07T18:12:02.424Z,3.00
2018-07-07T18:14:30.888Z,2.73
2018-07-07T18:16:59.419Z,3.07
2018-07-07T18:19:28.491Z,2.37
2018-07-07T18:21:57.181Z,2.77
2018-07-07T18:24:25.609Z,2.80
2018-07-07T18:26:54.043Z,2.60
2018-07-07T18:29:22.464Z,2.63
2018-07-07T18:31:51.089Z,2.57
2018-07-07T18:34:19.497Z,2.70
2018-07-07T18:36:47.922Z,2.50
2018-07-07T18:39:17.075Z,2.53
2018-07-07T18:41:45.430Z,2.93
2018-07-07T18:44:13.865Z,2.90
2018-07-07T18:46:42.703Z,2.80
2018-07-07T18:49:11.164Z,2.30
2018-07-07T18:51:39.584Z,2.63
2018-07-07T18:54:08.236Z,2.60
2018-07-07T18:56:36.732Z,2.07
2018-07-07T18:59:05.340Z,2.00
2018-07-07T19:01:33.837Z,2.40
2018-07-07T19:04:02.290Z,1.83
2018-07-07T19:06:30.734Z,2.03
2018-07-07T19:08:59.178Z,2.30
2018-07-07T19:11:27.597Z,2.10
2018-07-07T19:13:56.024Z,1.90
2018-07-07T19:16:24.493Z,2.00
2018-07-07T19:18:52.882Z,2.40
2018-07-07T19:21:26.677Z,1.93
2018-07-07T19:24:00.346Z,2.13
2018-07-07T19:26:34.107Z,2.20
2018-07-07T19:29:02.563Z,2.07
2018-07-07T19:31:31.071Z,2.00
2018-07-07T19:34:04.892Z,2.13
2018-07-07T19:37:38.823Z,2.10
2018-07-07T19:40:07.294Z,1.80
2018-07-07T19:42:35.787Z,2.30
2018-07-07T19:45:04.341Z,2.17
2018-07-07T19:47:32.763Z,2.30
2018-07-07T19:50:01.262Z,2.20
2018-07-07T19:52:29.701Z,1.97
2018-07-07T19:54:58.121Z,2.10
2018-07-07T19:57:26.260Z,2.53
2018-07-07T19:59:54.613Z,2.07
2018-07-07T20:02:23.030Z,2.10
2018-07-07T20:04:51.409Z,1.90
2018-07-07T20:07:19.887Z,2.10
2018-07-07T20:09:48.296Z,1.97
2018-07-07T20:12:16.701Z,2.17
2018-07-07T20:14:45.129Z,1.83
2018-07-07T20:17:14.566Z,2.10
2018-07-07T20:20:57.562Z,1.83
2018-07-07T20:23:27.041Z,1.80
2018-07-07T20:26:00.679Z,1.80
2018-07-07T20:28:34.593Z,1.90
2018-07-07T20:31:03.034Z,1.70
2018-07-07T20:33:31.453Z,2.10
2018-07-07T20:35:59.847Z,2.20
2018-07-07T20:38:28.326Z,1.93
2018-07-07T20:40:57.495Z,2.20
2018-07-07T20:43:25.887Z,2.10
2018-07-07T20:45:54.445Z,2.13
2018-07-07T20:48:22.928Z,1.80
2018-07-07T20:50:51.330Z,1.83
2018-07-07T20:53:19.701Z,1.70
2018-07-07T20:55:48.141Z,2.10
2018-07-07T20:58:16.540Z,1.80
2018-07-07T21:00:44.943Z,1.80
2018-07-07T21:03:13.329Z,1.90
2018-07-07T21:05:41.737Z,1.93
2018-07-07T21:08:10.160Z,1.60
2018-07-07T21:10:38.574Z,1.83
2018-07-07T21:13:07.035Z,1.60
2018-07-07T21:15:35.560Z,1.97
2018-07-07T21:18:03.954Z,1.83
2018-07-07T21:20:32.409Z,1.73
2018-07-07T21:23:00.810Z,1.70
2018-07-07T21:25:29.372Z,1.80
2018-07-07T21:27:57.841Z,1.80
2018-07-07T21:30:26.245Z,1.73
2018-07-07T21:32:54.679Z,2.10
2018-07-07T21:35:22.876Z,1.90
2018-07-07T21:37:51.214Z,1.90
2018-07-07T21:40:19.629Z,2.20
2018-07-07T21:42:48.109Z,2.10
2018-07-07T21:45:16.542Z,1.80
2018-07-07T21:47:44.950Z,1.90
2018-07-07T21:50:14.488Z,1.77
2018-07-07T21:52:42.991Z,1.70
2018-07-07T21:55:11.479Z,1.70
2018-07-07T21:57:45.314Z,1.80
2018-07-07T22:00:17.991Z,1.93
2018-07-07T22:02:53.091Z,1.73
2018-07-07T22:05:26.837Z,1.70
2018-07-07T22:07:55.240Z,1.80
2018-07-07T22:10:23.618Z,1.93
2018-07-07T22:12:52.027Z,1.70
2018-07-07T22:15:20.463Z,1.80
2018-07-07T22:17:48.952Z,1.90
2018-07-07T22:20:36.266Z,1.80
2018-07-07T22:23:04.820Z,1.70
2018-07-07T22:25:33.335Z,1.90
2018-07-07T22:28:01.760Z,1.83
2018-07-07T22:30:30.287Z,1.80
2018-07-07T22:33:03.849Z,1.90
2018-07-07T22:35:37.602Z,1.80
2018-07-07T22:38:10.237Z,2.20
2018-07-07T22:40:38.687Z,2.00
2018-07-07T22:43:06.858Z,2.30
2018-07-07T22:45:35.222Z,1.87
2018-07-07T22:48:03.623Z,2.03
2018-07-07T22:50:32.030Z,1.87
2018-07-07T22:53:00.488Z,1.90
2018-07-07T22:55:28.873Z,2.30
2018-07-07T22:57:57.262Z,1.93
2018-07-07T23:00:31.502Z,2.20
2018-07-07T23:03:01.058Z,2.40
2018-07-07T23:05:29.503Z,2.23
2018-07-07T23:07:57.930Z,2.20
2018-07-07T23:10:25.988Z,2.30
2018-07-07T23:12:54.377Z,2.47
2018-07-07T23:15:22.879Z,2.10
2018-07-07T23:17:51.250Z,2.60
2018-07-07T23:20:19.633Z,2.60
2018-07-07T23:22:54.459Z,2.20
2018-07-07T23:25:23.562Z,2.23
2018-07-07T23:27:52.277Z,2.10
2018-07-07T23:30:21.166Z,2.30
2018-07-07T23:32:50.529Z,2.50
2018-07-07T23:35:18.951Z,2.40
2018-07-07T23:37:47.426Z,2.27
2018-07-07T23:40:15.786Z,2.30
2018-07-07T23:42:44.252Z,2.40
2018-07-07T23:45:12.677Z,2.33
2018-07-07T23:47:41.058Z,2.37
2018-07-07T23:50:10.005Z,2.50
2018-07-07T23:52:38.427Z,2.40
2018-07-07T23:55:06.833Z,2.37
2018-07-07T23:57:35.365Z,2.50
